Time;durP1;ratioP1;P1;durP2;ratioP2;P2;SDS_P1;SDS_P2;PMS_P1;PMS_P2;Temp;Humidity;BMP_temperature;BMP_pressure;BME280_temperature;BME280_humidity;BME280_pressure;Samples;Min_cycle;Max_cycle;Signal;HPM_P1;HPM_P2
2022/05/26 00:02:23;;;;;;;1.52;1.15;;;17.20;83.20;;;;;;5056251;28;20223;-69
2022/05/26 00:04:50;;;;;;;1.38;1.27;;;17.20;84.30;;;;;;5056567;28;20204;-68
2022/05/26 00:07:17;;;;;;;1.50;1.40;;;17.20;84.60;;;;;;5056413;28;20309;-68
2022/05/26 00:09:44;;;;;;;1.02;1.02;;;17.20;84.50;;;;;;5056249;28;20206;-68
2022/05/26 00:12:12;;;;;;;1.17;1.08;;;17.20;85.20;;;;;;5056102;28;20568;-68
2022/05/26 00:14:39;;;;;;;1.48;1.38;;;17.10;86.00;;;;;;5056439;28;20265;-68
2022/05/26 00:17:06;;;;;;;1.50;1.15;;;17.10;86.20;;;;;;5056108;28;20234;-68
2022/05/26 00:19:34;;;;;;;1.42;1.33;;;17.00;85.60;;;;;;5056363;28;20573;-68
2022/05/26 00:22:01;;;;;;;1.10;1.10;;;17.10;85.50;;;;;;5056139;28;20771;-68
2022/05/26 00:24:28;;;;;;;2.28;1.60;;;17.10;86.00;;;;;;5055566;28;20616;-68
2022/05/26 00:26:55;;;;;;;1.40;1.30;;;17.00;86.20;;;;;;5055832;28;20230;-68
2022/05/26 00:29:21;;;;;;;2.00;1.30;;;17.10;86.20;;;;;;5055882;28;20207;-68
2022/05/26 00:31:48;;;;;;;1.52;1.42;;;17.10;86.20;;;;;;5056101;28;20206;-68
2022/05/26 00:34:15;;;;;;;1.92;1.40;;;17.20;85.60;;;;;;5055853;28;20234;-68
2022/05/26 00:36:44;;;;;;;1.30;1.20;;;17.20;86.40;;;;;;5055841;28;20206;-68
2022/05/26 00:39:13;;;;;;;1.30;1.20;;;17.30;86.10;;;;;;5055999;28;20211;-68
2022/05/26 00:41:43;;;;;;;1.50;1.40;;;17.30;85.80;;;;;;5055664;28;20716;-68
2022/05/26 00:44:10;;;;;;;1.00;1.00;;;17.30;86.20;;;;;;5055567;28;20235;-68
2022/05/26 00:46:45;;;;;;;1.25;1.15;;;17.20;86.10;;;;;;5055744;28;20200;-68
2022/05/26 00:49:19;;;;;;;1.52;1.38;;;17.20;86.50;;;;;;5055821;28;20195;-68
2022/05/26 00:51:48;;;;;;;4.18;1.23;;;17.20;85.80;;;;;;5055740;28;20298;-68
2022/05/26 00:54:19;;;;;;;1.60;1.50;;;17.20;85.80;;;;;;5055400;28;20215;-68
2022/05/26 00:56:51;;;;;;;1.10;1.10;;;17.20;86.10;;;;;;5055563;28;20638;-68
2022/05/26 00:59:23;;;;;;;2.60;1.48;;;17.20;86.20;;;;;;5055371;28;20641;-68
2022/05/26 01:01:50;;;;;;;1.80;1.38;;;17.20;86.70;;;;;;5055278;28;20223;-68
2022/05/26 01:04:20;;;;;;;1.23;1.17;;;17.20;86.70;;;;;;5055324;28;20606;-68
2022/05/26 01:06:53;;;;;;;1.38;1.27;;;17.20;87.40;;;;;;5055218;28;20220;-68
2022/05/26 01:09:20;;;;;;;1.23;1.23;;;17.20;87.40;;;;;;5055222;28;20187;-68
2022/05/26 01:11:47;;;;;;;1.20;1.10;;;17.20;88.00;;;;;;5055298;28;20199;-68
2022/05/26 01:14:19;;;;;;;1.50;1.42;;;17.20;87.80;;;;;;5055139;28;20207;-68
2022/05/26 01:17:02;;;;;;;1.42;1.20;;;17.10;87.80;;;;;;5055293;28;20234;-68
2022/05/26 01:20:05;;;;;;;1.10;1.10;;;17.10;88.00;;;;;;5055324;28;20210;-68
2022/05/26 01:22:54;;;;;;;1.60;1.20;;;17.00;88.00;;;;;;5032041;28;20258;-68
2022/05/26 01:26:04;;;;;;;1.20;1.10;;;17.00;88.20;;;;;;5055123;28;20203;-68
2022/05/26 01:28:47;;;;;;;2.15;1.20;;;16.90;88.30;;;;;;5007299;28;20241;-68
2022/05/26 01:31:32;;;;;;;1.20;1.20;;;16.90;88.80;;;;;;5055003;28;20217;-68
2022/05/26 01:34:07;;;;;;;1.30;1.20;;;16.90;89.40;;;;;;5054793;28;20640;-68
2022/05/26 01:36:41;;;;;;;1.48;0.95;;;16.80;89.50;;;;;;5053822;28;20202;-68
2022/05/26 01:39:18;;;;;;;2.83;1.30;;;16.80;89.40;;;;;;5054597;28;20187;-68
2022/05/26 01:42:01;;;;;;;1.45;1.35;;;16.80;89.50;;;;;;5054531;28;20676;-68
2022/05/26 01:44:36;;;;;;;1.20;1.13;;;16.80;89.60;;;;;;5054581;28;20210;-68
2022/05/26 01:47:11;;;;;;;2.15;1.10;;;16.70;89.30;;;;;;5054701;28;20234;-68
2022/05/26 01:49:45;;;;;;;1.10;1.10;;;16.70;89.30;;;;;;5054637;28;20201;-68
2022/05/26 01:52:15;;;;;;;3.80;1.10;;;16.70;90.00;;;;;;5054407;28;20290;-68
2022/05/26 01:54:49;;;;;;;1.08;1.08;;;16.70;90.10;;;;;;5054361;28;20221;-68
2022/05/26 01:57:22;;;;;;;1.10;1.10;;;16.60;90.10;;;;;;5054297;28;20230;-68
2022/05/26 01:59:52;;;;;;;1.52;1.30;;;16.60;90.00;;;;;;5054476;28;20188;-68
2022/05/26 02:02:24;;;;;;;1.05;1.05;;;16.60;89.90;;;;;;5054152;28;20258;-68
2022/05/26 02:04:55;;;;;;;1.00;1.00;;;16.60;89.90;;;;;;5054181;28;20215;-68
2022/05/26 02:07:27;;;;;;;2.45;1.13;;;16.60;90.00;;;;;;5054119;28;20313;-69
2022/05/26 02:09:56;;;;;;;1.05;1.05;;;16.60;90.00;;;;;;5054357;28;20190;-69
2022/05/26 02:12:29;;;;;;;2.35;1.35;;;16.60;89.90;;;;;;5054011;28;20565;-69
2022/05/26 02:15:00;;;;;;;1.23;0.98;;;16.60;89.80;;;;;;5054227;28;20204;-69
2022/05/26 02:17:31;;;;;;;1.05;1.05;;;16.60;89.40;;;;;;5054055;28;20223;-69
2022/05/26 02:20:00;;;;;;;0.90;0.90;;;16.50;89.50;;;;;;5054105;28;20210;-68
2022/05/26 02:22:32;;;;;;;1.20;1.10;;;16.60;89.40;;;;;;5053824;28;20227;-69
2022/05/26 02:25:03;;;;;;;1.08;1.00;;;16.50;89.20;;;;;;5053945;28;20215;-68
2022/05/26 02:27:31;;;;;;;1.45;1.20;;;16.50;89.10;;;;;;5053985;28;20227;-68
2022/05/26 02:30:00;;;;;;;1.73;1.15;;;16.50;89.30;;;;;;5053928;28;20573;-68
2022/05/26 02:32:32;;;;;;;1.00;0.90;;;16.50;89.90;;;;;;5053673;28;20616;-69
2022/05/26 02:35:02;;;;;;;1.40;1.30;;;16.50;90.00;;;;;;5053872;28;20207;-68
2022/05/26 02:37:31;;;;;;;1.10;1.10;;;16.50;90.00;;;;;;5054430;28;20644;-68
2022/05/26 02:39:58;;;;;;;0.85;0.85;;;16.40;90.20;;;;;;5053527;28;20210;-68
2022/05/26 02:42:25;;;;;;;1.20;1.05;;;16.40;90.20;;;;;;5053489;28;20622;-68
2022/05/26 02:44:53;;;;;;;1.08;1.08;;;16.30;90.30;;;;;;5053548;28;20565;-68
2022/05/26 02:47:41;;;;;;;1.80;1.20;;;16.30;90.50;;;;;;5053379;28;20227;-68
2022/05/26 02:50:21;;;;;;;0.90;0.90;;;16.30;90.80;;;;;;5053409;28;20209;-68
2022/05/26 02:53:01;;;;;;;3.08;1.08;;;16.20;91.20;;;;;;5053679;28;20202;-68
2022/05/26 02:55:41;;;;;;;1.13;1.00;;;16.20;91.80;;;;;;5053460;28;20690;-68
2022/05/26 02:58:14;;;;;;;0.90;0.90;;;16.10;91.90;;;;;;5053312;28;20248;-68
2022/05/26 03:00:46;;;;;;;1.00;1.00;;;16.10;92.00;;;;;;5053360;28;20207;-68
2022/05/26 03:03:20;;;;;;;1.10;1.10;;;16.10;92.10;;;;;;5053338;28;20402;-68
2022/05/26 03:05:52;;;;;;;1.20;1.20;;;16.10;92.20;;;;;;5053512;28;20340;-68
2022/05/26 03:08:23;;;;;;;1.70;1.25;;;16.10;92.00;;;;;;5053396;28;20233;-68
2022/05/26 03:10:52;;;;;;;1.55;1.45;;;16.10;92.50;;;;;;5053206;28;20280;-68
2022/05/26 03:13:19;;;;;;;1.50;1.20;;;16.10;92.70;;;;;;5053264;28;20206;-68
2022/05/26 03:15:46;;;;;;;1.42;1.30;;;16.00;93.10;;;;;;5053389;28;20202;-68
2022/05/26 03:18:14;;;;;;;1.30;1.20;;;16.10;92.90;;;;;;5053505;28;20321;-68
2022/05/26 03:20:41;;;;;;;1.95;1.40;;;16.10;92.90;;;;;;5053240;28;20202;-68
2022/05/26 03:23:08;;;;;;;1.42;0.98;;;16.00;93.10;;;;;;5052916;28;20249;-68
2022/05/26 03:25:35;;;;;;;1.27;1.17;;;16.00;93.40;;;;;;5053283;28;20207;-68
2022/05/26 03:28:01;;;;;;;0.93;0.93;;;16.00;93.10;;;;;;5052977;28;20318;-68
2022/05/26 03:30:28;;;;;;;1.30;1.20;;;15.90;94.00;;;;;;5053225;28;20293;-68
2022/05/26 03:32:55;;;;;;;1.40;1.30;;;15.80;94.30;;;;;;5052934;28;20202;-68
2022/05/26 03:40:54;;;;;;;2.80;1.20;;;15.70;94.20;;;;;;5053222;28;20588;-68
2022/05/26 03:43:23;;;;;;;2.50;1.27;;;15.70;94.30;;;;;;5052710;28;20755;-68
2022/05/26 03:45:50;;;;;;;1.30;1.20;;;15.70;94.20;;;;;;5053096;28;20206;-68
2022/05/26 03:48:16;;;;;;;1.95;1.35;;;15.70;94.20;;;;;;5052773;28;20592;-68
2022/05/26 03:50:45;;;;;;;1.55;1.20;;;15.70;94.80;;;;;;5053067;28;20206;-68
2022/05/26 03:53:11;;;;;;;1.40;1.30;;;15.60;94.50;;;;;;5052533;28;20668;-68
2022/05/26 03:55:39;;;;;;;1.05;1.05;;;15.50;94.80;;;;;;5053019;28;20294;-69
2022/05/26 03:58:07;;;;;;;1.30;1.10;;;15.50;95.00;;;;;;5052881;28;20320;-68
2022/05/26 04:00:34;;;;;;;1.40;1.30;;;15.50;95.10;;;;;;5054339;28;20209;-68
2022/05/26 04:03:00;;;;;;;2.38;1.23;;;15.50;95.20;;;;;;5056152;28;20228;-68
2022/05/26 04:05:27;;;;;;;1.48;1.30;;;15.50;95.60;;;;;;5056633;28;20541;-68
2022/05/26 04:07:55;;;;;;;1.67;1.58;;;15.50;95.60;;;;;;5056578;28;20597;-68
2022/05/26 04:10:22;;;;;;;2.10;1.20;;;15.50;96.00;;;;;;5056530;28;20201;-68
2022/05/26 04:12:49;;;;;;;2.22;1.40;;;15.40;96.60;;;;;;5056223;28;20604;-68
2022/05/26 04:15:17;;;;;;;2.03;1.27;;;15.40;96.60;;;;;;5056350;28;20302;-68
2022/05/26 04:17:45;;;;;;;1.27;0.98;;;15.40;97.00;;;;;;5056351;28;20233;-68
2022/05/26 04:20:17;;;;;;;1.25;1.15;;;15.40;96.50;;;;;;5056371;28;20287;-68
2022/05/26 04:22:44;;;;;;;1.23;1.10;;;15.40;96.30;;;;;;5055756;28;20235;-68
2022/05/26 04:25:13;;;;;;;1.15;1.05;;;15.40;96.30;;;;;;5056253;28;20212;-68
2022/05/26 04:27:41;;;;;;;2.05;1.10;;;15.50;96.50;;;;;;5056127;28;20222;-68
2022/05/26 04:30:10;;;;;;;1.27;1.20;;;15.50;97.20;;;;;;5056128;28;20201;-68
2022/05/26 04:32:39;;;;;;;1.15;1.05;;;15.50;97.30;;;;;;5055833;28;20208;-68
2022/05/26 04:35:07;;;;;;;2.17;1.50;;;15.50;97.20;;;;;;5056008;28;20202;-68
2022/05/26 04:37:33;;;;;;;1.40;1.10;;;15.50;97.50;;;;;;5055868;28;20226;-68
2022/05/26 04:40:00;;;;;;;1.50;1.40;;;15.40;97.80;;;;;;5056068;28;20564;-68
2022/05/26 04:42:29;;;;;;;1.58;1.05;;;15.40;97.80;;;;;;5055660;28;20720;-68
2022/05/26 04:44:56;;;;;;;1.52;1.42;;;15.40;98.30;;;;;;5055794;28;20414;-68
2022/05/26 04:47:23;;;;;;;1.30;1.20;;;15.50;98.80;;;;;;5055575;28;20313;-68
2022/05/26 04:49:50;;;;;;;1.25;1.25;;;15.50;98.70;;;;;;5055696;28;20210;-68
2022/05/26 04:52:18;;;;;;;1.60;1.30;;;15.60;98.00;;;;;;5055575;28;20296;-68
2022/05/26 04:54:46;;;;;;;1.20;1.10;;;15.70;97.70;;;;;;5055340;28;20210;-68
2022/05/26 04:57:15;;;;;;;1.67;1.35;;;15.70;97.30;;;;;;5055364;28;20221;-68
2022/05/26 04:59:43;;;;;;;2.88;1.50;;;15.80;97.00;;;;;;5055615;28;20209;-68
2022/05/26 05:02:11;;;;;;;1.60;1.50;;;15.90;96.80;;;;;;5055414;28;20249;-68
2022/05/26 05:04:41;;;;;;;1.05;1.05;;;15.90;96.50;;;;;;5055442;28;20226;-68
2022/05/26 05:07:09;;;;;;;2.22;1.15;;;16.00;96.20;;;;;;5055379;28;20225;-69
2022/05/26 05:09:36;;;;;;;1.30;1.30;;;16.10;95.90;;;;;;5055437;28;20304;-68
2022/05/26 05:12:04;;;;;;;1.08;1.05;;;16.10;96.10;;;;;;5055057;28;20202;-70
2022/05/26 05:14:33;;;;;;;1.40;1.30;;;16.10;96.30;;;;;;5055344;28;20202;-68
2022/05/26 05:17:01;;;;;;;1.27;1.23;;;16.20;95.50;;;;;;5055086;28;20716;-68
2022/05/26 05:19:28;;;;;;;0.88;0.85;;;16.20;95.00;;;;;;5055285;28;20203;-68
2022/05/26 05:22:00;;;;;;;2.05;1.10;;;16.20;95.00;;;;;;5055136;28;20212;-68
2022/05/26 05:24:33;;;;;;;0.85;0.85;;;16.20;95.20;;;;;;5054959;28;20276;-68
2022/05/26 05:27:04;;;;;;;1.27;1.20;;;16.20;94.80;;;;;;5055046;28;20237;-68
2022/05/26 05:29:35;;;;;;;1.13;0.90;;;16.30;95.10;;;;;;5055127;28;20282;-68
2022/05/26 05:32:10;;;;;;;1.55;1.10;;;16.30;95.00;;;;;;5055032;28;20573;-68
2022/05/26 05:34:41;;;;;;;1.00;1.00;;;16.30;94.60;;;;;;5054932;28;20206;-68
2022/05/26 05:37:08;;;;;;;1.00;1.00;;;16.30;94.60;;;;;;5054839;28;20226;-68
2022/05/26 05:39:35;;;;;;;1.25;1.17;;;16.30;94.50;;;;;;5054608;28;20211;-68
2022/05/26 05:42:02;;;;;;;0.93;0.93;;;16.30;94.10;;;;;;5054831;28;20605;-68
2022/05/26 05:44:30;;;;;;;6.07;4.68;;;16.30;94.60;;;;;;5054436;28;20779;-68
2022/05/26 05:46:58;;;;;;;5.15;4.50;;;16.30;94.40;;;;;;5054540;28;20233;-68
2022/05/26 05:49:27;;;;;;;1.50;1.40;;;16.40;94.70;;;;;;5054420;28;20207;-68
2022/05/26 05:51:56;;;;;;;1.63;1.30;;;16.40;94.60;;;;;;5054600;28;20211;-68
2022/05/26 05:54:23;;;;;;;1.25;1.23;;;16.40;94.50;;;;;;5054232;28;20208;-68
2022/05/26 05:56:50;;;;;;;5.32;1.20;;;16.50;94.40;;;;;;5054377;28;20229;-68
2022/05/26 05:59:17;;;;;;;1.10;1.10;;;16.50;94.40;;;;;;5054472;28;20200;-68
2022/05/26 06:01:44;;;;;;;1.23;1.13;;;16.60;94.30;;;;;;5054440;28;20294;-68
2022/05/26 06:04:11;;;;;;;1.40;1.10;;;16.70;94.00;;;;;;5054146;28;20230;-68
2022/05/26 06:06:41;;;;;;;1.05;1.05;;;16.80;94.00;;;;;;5054076;28;20294;-68
2022/05/26 06:09:10;;;;;;;1.02;1.00;;;16.90;93.70;;;;;;5054381;28;20283;-68
2022/05/26 06:11:36;;;;;;;1.10;1.00;;;17.00;94.00;;;;;;5054185;28;20210;-68
2022/05/26 06:14:03;;;;;;;2.35;1.00;;;17.10;93.80;;;;;;5053759;28;20195;-68
2022/05/26 06:16:30;;;;;;;7.47;5.20;;;17.20;93.00;;;;;;5054115;28;20264;-68
2022/05/26 06:18:57;;;;;;;1.83;1.73;;;17.30;93.20;;;;;;5054204;28;20199;-68
2022/05/26 06:21:24;;;;;;;1.17;1.05;;;17.40;93.30;;;;;;5054042;28;20561;-68
2022/05/26 06:23:56;;;;;;;1.20;1.10;;;17.40;93.40;;;;;;5053068;28;20220;-68
2022/05/26 06:26:23;;;;;;;2.72;1.10;;;17.40;93.00;;;;;;5053957;28;20231;-68
2022/05/26 06:31:35;;;;;;;1.90;1.33;;;17.30;93.00;;;;;;5053960;28;20245;-68
2022/05/26 06:39:32;;;;;;;1.95;1.30;;;17.50;92.80;;;;;;5053839;28;20199;-68
2022/05/26 06:44:44;;;;;;;1.75;1.27;;;17.70;92.70;;;;;;5053400;28;20542;-68
2022/05/26 06:47:13;;;;;;;1.40;1.30;;;17.70;92.50;;;;;;5053377;28;20314;-69
2022/05/26 06:49:42;;;;;;;1.25;1.15;;;17.80;92.60;;;;;;5053404;28;20680;-68
2022/05/26 06:52:09;;;;;;;1.20;1.17;;;17.80;92.40;;;;;;5053456;28;20211;-68
2022/05/26 06:54:39;;;;;;;1.25;1.20;;;17.80;92.90;;;;;;5053471;28;20211;-68
2022/05/26 06:57:07;;;;;;;1.20;1.20;;;17.80;92.50;;;;;;5053388;28;20219;-68
2022/05/26 06:59:35;;;;;;;1.48;1.48;;;17.80;92.00;;;;;;5053302;28;20204;-68
2022/05/26 07:02:02;;;;;;;1.30;1.20;;;17.80;92.80;;;;;;5053464;28;20618;-68
2022/05/26 07:04:29;;;;;;;1.95;1.20;;;17.90;92.60;;;;;;5053267;28;20219;-68
2022/05/26 07:06:56;;;;;;;1.10;1.10;;;18.00;92.40;;;;;;5053395;28;20220;-68
2022/05/26 07:09:26;;;;;;;1.35;1.17;;;18.10;92.30;;;;;;5053515;28;20569;-68
2022/05/26 07:11:55;;;;;;;1.27;1.17;;;18.20;92.50;;;;;;5053397;28;20203;-68
2022/05/26 07:14:22;;;;;;;1.48;0.95;;;18.20;91.70;;;;;;5053153;28;20196;-68
2022/05/26 07:16:49;;;;;;;1.30;1.20;;;18.20;92.00;;;;;;5053031;28;20255;-68
2022/05/26 07:19:17;;;;;;;1.20;1.10;;;18.30;92.30;;;;;;5053423;28;20215;-68
2022/05/26 07:21:46;;;;;;;2.38;1.20;;;18.40;92.20;;;;;;5053339;28;20209;-68
2022/05/26 07:24:13;;;;;;;2.17;1.25;;;18.50;91.30;;;;;;5053069;28;20648;-68
2022/05/26 07:26:41;;;;;;;1.67;1.07;;;18.60;91.50;;;;;;5053153;28;20672;-68
2022/05/26 07:29:09;;;;;;;1.40;1.25;;;18.70;91.50;;;;;;5053221;28;20443;-68
2022/05/26 07:31:37;;;;;;;1.20;1.20;;;18.80;91.40;;;;;;5053239;28;20205;-68
2022/05/26 07:34:05;;;;;;;1.02;1.02;;;18.80;91.10;;;;;;5053805;28;20204;-68
2022/05/26 07:42:02;;;;;;;2.28;1.05;;;19.00;90.20;;;;;;5057132;28;20202;-68
2022/05/26 07:44:35;;;;;;;5.40;3.90;;;18.90;89.10;;;;;;5056605;28;20224;-68
2022/05/26 07:47:02;;;;;;;3.05;2.55;;;19.00;90.10;;;;;;5056832;28;20466;-68
2022/05/26 07:49:29;;;;;;;2.30;1.60;;;19.10;90.30;;;;;;5056982;28;20199;-68
2022/05/26 07:51:57;;;;;;;0.90;0.90;;;19.10;87.80;;;;;;5056805;28;20446;-68
2022/05/26 07:54:25;;;;;;;1.10;1.10;;;19.00;88.40;;;;;;5056446;28;20553;-68
2022/05/26 07:56:51;;;;;;;1.27;1.20;;;19.10;89.30;;;;;;5056457;28;20472;-68
2022/05/26 07:59:19;;;;;;;1.40;1.30;;;19.10;89.90;;;;;;5056834;28;20557;-68
2022/05/26 08:01:48;;;;;;;1.20;1.00;;;19.20;88.60;;;;;;5056933;28;20805;-68
2022/05/26 08:04:15;;;;;;;1.80;0.93;;;19.40;88.80;;;;;;5056293;28;20985;-68
2022/05/26 08:06:45;;;;;;;1.37;1.27;;;19.50;87.30;;;;;;5056501;28;20595;-68
2022/05/26 08:09:12;;;;;;;1.33;1.23;;;19.60;88.40;;;;;;5056643;28;20451;-68
2022/05/26 08:11:39;;;;;;;2.30;1.20;;;19.60;88.40;;;;;;5056535;28;20449;-68
2022/05/26 08:14:06;;;;;;;1.07;0.97;;;19.50;86.90;;;;;;5056309;28;20443;-68
2022/05/26 08:16:34;;;;;;;0.83;0.83;;;19.60;88.50;;;;;;5056361;28;20526;-68
2022/05/26 08:19:02;;;;;;;1.00;0.90;;;19.60;87.70;;;;;;5056462;28;20448;-68
2022/05/26 08:21:29;;;;;;;3.03;1.10;;;19.70;88.60;;;;;;5056091;28;20446;-68
2022/05/26 08:23:56;;;;;;;1.40;1.30;;;19.70;86.30;;;;;;5055860;28;20447;-68
2022/05/26 08:26:23;;;;;;;1.60;1.00;;;19.70;86.90;;;;;;5056442;28;20862;-68
2022/05/26 08:28:50;;;;;;;2.00;1.20;;;19.50;85.30;;;;;;5056166;28;20549;-68
2022/05/26 08:31:17;;;;;;;1.40;1.20;;;19.30;87.40;;;;;;5056151;28;20447;-68
2022/05/26 08:33:44;;;;;;;1.10;1.10;;;19.30;87.60;;;;;;5055745;28;20452;-68
2022/05/26 08:36:14;;;;;;;2.00;0.90;;;19.10;87.30;;;;;;5056138;28;20804;-68
2022/05/26 08:38:41;;;;;;;1.30;1.10;;;19.00;87.20;;;;;;5056031;28;20865;-68
2022/05/26 08:41:11;;;;;;;1.40;1.30;;;19.00;88.50;;;;;;5055875;28;20959;-68
2022/05/26 08:43:41;;;;;;;0.97;0.97;;;19.10;88.50;;;;;;5055577;28;20289;-68
2022/05/26 08:46:10;;;;;;;1.40;1.30;;;19.10;89.00;;;;;;5055081;28;20486;-68
2022/05/26 08:48:48;;;;;;;1.20;1.10;;;19.20;88.80;;;;;;5055828;28;20500;-68
2022/05/26 08:51:24;;;;;;;1.30;1.30;;;19.20;87.00;;;;;;5055660;28;20800;-68
2022/05/26 08:53:52;;;;;;;1.00;1.00;;;19.30;88.20;;;;;;5055252;28;20979;-68
2022/05/26 08:56:23;;;;;;;1.20;1.20;;;19.30;87.30;;;;;;5055647;28;20453;-68
2022/05/26 08:58:53;;;;;;;1.10;1.00;;;19.30;88.10;;;;;;5055344;28;20561;-68
2022/05/26 09:01:27;;;;;;;1.47;1.30;;;19.30;88.50;;;;;;5055416;28;20444;-68
2022/05/26 09:03:54;;;;;;;1.00;1.00;;;19.30;90.30;;;;;;5055329;28;20450;-68
2022/05/26 09:06:23;;;;;;;1.00;1.00;;;19.40;89.30;;;;;;5055519;28;20440;-68
2022/05/26 09:14:25;;;;;;;2.97;1.53;;;19.50;87.70;;;;;;5055130;28;20416;-68
2022/05/26 09:16:58;;;;;;;1.70;1.30;;;19.60;87.10;;;;;;5055235;28;20506;-68
2022/05/26 09:19:30;;;;;;;1.13;1.13;;;19.80;87.30;;;;;;5055309;28;20519;-69
2022/05/26 09:21:58;;;;;;;1.43;1.33;;;20.20;87.90;;;;;;5055275;28;20459;-69
2022/05/26 09:24:32;;;;;;;1.47;1.37;;;20.50;87.10;;;;;;5054944;28;20491;-68
2022/05/26 09:27:00;;;;;;;1.30;1.30;;;20.70;85.40;;;;;;5054896;28;20480;-68
2022/05/26 09:29:29;;;;;;;1.47;1.30;;;20.70;85.70;;;;;;5055101;28;20486;-68
2022/05/26 09:31:58;;;;;;;2.90;2.70;;;20.80;84.60;;;;;;5055021;28;20452;-68
2022/05/26 09:34:26;;;;;;;1.43;1.33;;;20.70;84.20;;;;;;5054808;28;20444;-68
2022/05/26 09:36:56;;;;;;;1.10;1.00;;;20.70;84.30;;;;;;5054881;28;20471;-68
2022/05/26 09:39:27;;;;;;;1.23;1.10;;;20.60;83.90;;;;;;5054994;28;20848;-68
2022/05/26 09:41:56;;;;;;;1.10;1.00;;;20.40;84.20;;;;;;5054742;28;20444;-68
2022/05/26 09:44:39;;;;;;;1.13;1.10;;;20.20;85.00;;;;;;5054494;28;20476;-68
2022/05/26 09:47:20;;;;;;;1.27;1.17;;;20.10;85.10;;;;;;5054647;28;20470;-68
2022/05/26 09:49:50;;;;;;;1.17;1.07;;;19.80;86.00;;;;;;5054720;28;20448;-68
2022/05/26 09:52:18;;;;;;;1.30;1.20;;;19.70;86.60;;;;;;5054367;28;20446;-68
2022/05/26 09:54:48;;;;;;;1.23;1.13;;;19.50;86.30;;;;;;5054208;28;20467;-69
2022/05/26 09:57:18;;;;;;;1.20;1.10;;;19.40;86.10;;;;;;5058686;28;20559;-68
2022/05/26 09:59:45;;;;;;;1.60;1.50;;;19.30;86.70;;;;;;5055752;28;20801;-68
2022/05/26 10:02:16;;;;;;;1.27;1.27;;;19.20;88.10;;;;;;5053055;28;20937;-69
2022/05/26 10:05:00;;;;;;;1.50;1.30;;;19.10;88.30;;;;;;5053264;28;20573;-70
2022/05/26 10:07:42;;;;;;;1.85;1.20;;;19.10;90.00;;;;;;5053330;28;20593;-69
2022/05/26 10:10:17;;;;;;;1.98;1.10;;;19.10;89.00;;;;;;5053201;28;20302;-69
2022/05/26 10:12:54;;;;;;;1.40;1.30;;;19.20;89.80;;;;;;5052816;28;20203;-70
2022/05/26 10:15:31;;;;;;;1.10;1.00;;;19.20;88.10;;;;;;5053177;28;20205;-70
2022/05/26 10:18:21;;;;;;;1.80;1.20;;;19.30;89.40;;;;;;5053014;28;20476;-70
2022/05/26 10:20:56;;;;;;;1.50;1.40;;;19.30;88.80;;;;;;5052722;28;20447;-70
2022/05/26 10:23:53;;;;;;;1.93;1.27;;;19.30;88.80;;;;;;5052727;28;20453;-70
2022/05/26 10:26:30;;;;;;;1.10;1.00;;;19.20;88.20;;;;;;5026468;28;20493;-70
2022/05/26 10:29:17;;;;;;;1.73;1.02;;;19.30;89.60;;;;;;5052847;28;20817;-69
2022/05/26 10:31:57;;;;;;;1.40;1.30;;;19.40;88.00;;;;;;5052487;28;20209;-70
2022/05/26 10:34:48;;;;;;;1.70;1.60;;;19.50;90.40;;;;;;5052539;28;20968;-69
2022/05/26 10:37:27;;;;;;;1.67;1.53;;;19.50;88.20;;;;;;5052829;28;20473;-69
2022/05/26 10:40:18;;;;;;;1.77;1.67;;;19.50;88.00;;;;;;5052449;28;20448;-70
2022/05/26 10:42:52;;;;;;;1.53;1.43;;;19.60;89.20;;;;;;5052172;28;20451;-70
2022/05/26 10:45:23;;;;;;;1.80;1.60;;;19.60;88.20;;;;;;5052644;28;20498;-70
2022/05/26 10:47:57;;;;;;;1.23;1.10;;;19.70;88.40;;;;;;5052700;28;20472;-69
2022/05/26 10:50:29;;;;;;;1.73;1.20;;;19.70;89.30;;;;;;5052454;28;20447;-70
2022/05/26 10:53:02;;;;;;;1.90;1.80;;;19.70;86.10;;;;;;5051890;28;21109;-70
2022/05/26 10:55:37;;;;;;;1.37;1.27;;;19.60;87.90;;;;;;5052831;28;20450;-70
2022/05/26 10:58:11;;;;;;;1.93;1.40;;;19.40;88.70;;;;;;5052533;28;20466;-70
2022/05/26 11:00:38;;;;;;;1.37;1.27;;;19.30;89.50;;;;;;5052156;28;20442;-71
2022/05/26 11:03:14;;;;;;;1.50;1.40;;;19.30;89.70;;;;;;5052183;28;20439;-69
2022/05/26 11:05:46;;;;;;;1.60;1.50;;;19.20;90.00;;;;;;5052308;28;20487;-69
2022/05/26 11:08:25;;;;;;;1.30;1.20;;;19.20;89.20;;;;;;5052169;28;20473;-70
2022/05/26 11:10:56;;;;;;;3.90;3.50;;;19.20;89.40;;;;;;5058493;28;20441;-70
2022/05/26 11:13:36;;;;;;;1.37;1.27;;;19.20;88.30;;;;;;5058692;28;20457;-69
2022/05/26 11:18:55;;;;;;;1.17;1.17;;;19.20;90.30;;;;;;5058821;28;20445;-69
2022/05/26 11:21:23;;;;;;;1.20;1.20;;;19.20;89.90;;;;;;5058703;28;20450;-70
2022/05/26 11:23:51;;;;;;;2.40;1.63;;;19.40;89.20;;;;;;5058690;28;20211;-69
2022/05/26 11:26:31;;;;;;;1.43;1.33;;;19.50;89.80;;;;;;5058996;28;20480;-69
2022/05/26 11:29:06;;;;;;;1.10;1.10;;;19.60;89.80;;;;;;5058903;28;20791;-69
2022/05/26 11:37:23;;;;;;;1.50;1.40;;;19.90;88.90;;;;;;5058829;28;20466;-69
2022/05/26 11:39:54;;;;;;;1.40;1.30;;;19.80;90.10;;;;;;5058434;28;20451;-69
2022/05/26 11:42:30;;;;;;;3.03;2.77;;;19.80;90.80;;;;;;5058353;28;20810;-68
2022/05/26 11:45:15;;;;;;;3.83;2.43;;;19.90;88.10;;;;;;5058374;28;20486;-68
2022/05/26 11:47:51;;;;;;;1.60;1.50;;;19.80;88.00;;;;;;5058576;28;20502;-69
2022/05/26 11:50:29;;;;;;;1.43;1.33;;;19.60;88.00;;;;;;5058601;28;20525;-68
2022/05/26 11:53:03;;;;;;;1.43;1.33;;;19.50;89.40;;;;;;5058038;28;20533;-69
2022/05/26 11:55:33;;;;;;;2.00;1.60;;;19.60;89.90;;;;;;5058414;28;20534;-70
2022/05/26 11:58:19;;;;;;;1.47;1.37;;;19.70;89.20;;;;;;5058778;28;20466;-68
2022/05/26 12:00:49;;;;;;;1.63;1.17;;;19.90;88.50;;;;;;5058562;28;20454;-68
2022/05/26 12:03:30;;;;;;;1.87;1.50;;;19.90;88.60;;;;;;5058272;28;20452;-69
2022/05/26 12:06:11;;;;;;;2.43;1.73;;;19.90;87.70;;;;;;5058301;28;21055;-69
2022/05/26 12:08:42;;;;;;;2.13;1.50;;;20.00;87.50;;;;;;5058583;28;20487;-69
2022/05/26 12:11:11;;;;;;;1.60;1.50;;;19.90;87.60;;;;;;5058307;28;20676;-69
2022/05/26 12:13:41;;;;;;;3.63;1.53;;;19.90;87.70;;;;;;5058264;28;20466;-69
2022/05/26 12:16:29;;;;;;;1.40;1.20;;;19.80;88.80;;;;;;5058513;28;20440;-69
2022/05/26 12:18:59;;;;;;;1.70;1.60;;;19.90;89.60;;;;;;5058362;28;20522;-69
2022/05/26 12:21:43;;;;;;;10.33;8.10;;;19.90;89.70;;;;;;5055182;28;20439;-69
2022/05/26 12:25:00;;;;;;;11.53;9.33;;;19.80;88.90;;;;;;5054940;28;20454;-69
2022/05/26 12:27:58;;;;;;;2.63;2.43;;;19.70;90.90;;;;;;5010465;28;20521;-69
2022/05/26 12:31:13;;;;;;;2.40;1.90;;;19.60;90.70;;;;;;5028852;28;20461;-69
2022/05/26 12:34:03;;;;;;;1.90;1.80;;;19.50;90.00;;;;;;5041041;28;20538;-69
2022/05/26 12:36:52;;;;;;;2.00;1.80;;;19.50;91.00;;;;;;5055129;28;20801;-69
2022/05/26 12:40:03;;;;;;;2.40;2.10;;;19.40;90.70;;;;;;5054741;28;20853;-69
2022/05/26 12:42:48;;;;;;;8.10;6.57;;;19.40;91.40;;;;;;5049682;28;20882;-68
2022/05/26 12:45:33;;;;;;;3.10;2.80;;;19.40;91.50;;;;;;5054660;28;20481;-69
2022/05/26 12:48:42;;;;;;;2.13;1.80;;;19.40;91.90;;;;;;5054937;28;20471;-70
2022/05/26 12:51:13;;;;;;;2.60;2.40;;;19.40;91.80;;;;;;5054737;28;20212;-69
2022/05/26 12:53:47;;;;;;;2.57;2.00;;;19.50;92.60;;;;;;5054509;28;20482;-70
2022/05/26 12:56:19;;;;;;;2.47;1.90;;;19.60;91.90;;;;;;5054497;28;20474;-69
2022/05/26 12:58:53;;;;;;;1.70;1.60;;;19.70;91.80;;;;;;5054679;28;20530;-69
2022/05/26 13:01:23;;;;;;;2.00;1.90;;;19.90;91.50;;;;;;5054491;28;20529;-69
2022/05/26 13:03:59;;;;;;;3.00;1.90;;;20.10;90.90;;;;;;5054360;28;20437;-69
2022/05/26 13:06:32;;;;;;;1.83;1.73;;;20.40;90.80;;;;;;5054351;28;20492;-69
2022/05/26 13:09:06;;;;;;;1.73;1.63;;;20.50;91.70;;;;;;5054484;28;20459;-69
2022/05/26 13:11:37;;;;;;;1.87;1.77;;;20.60;91.20;;;;;;5054385;28;20543;-68
2022/05/26 13:14:08;;;;;;;2.27;1.70;;;20.70;90.50;;;;;;5054154;28;20546;-69
2022/05/26 13:16:36;;;;;;;2.70;1.67;;;20.90;90.30;;;;;;5054249;28;20474;-69
2022/05/26 13:19:10;;;;;;;2.50;1.80;;;20.80;89.60;;;;;;5054021;28;20792;-69
2022/05/26 13:21:39;;;;;;;1.90;1.80;;;20.80;89.40;;;;;;5054343;28;20448;-69
2022/05/26 13:24:15;;;;;;;1.93;1.83;;;20.70;90.20;;;;;;5054064;28;20540;-69
2022/05/26 13:26:43;;;;;;;1.70;1.60;;;20.50;89.90;;;;;;5053897;28;20480;-69
2022/05/26 13:29:11;;;;;;;1.90;1.80;;;20.30;90.00;;;;;;5053901;28;20449;-70
2022/05/26 13:34:29;;;;;;;2.30;2.20;;;20.00;90.80;;;;;;5053835;28;20492;-69
2022/05/26 13:36:57;;;;;;;2.20;2.00;;;19.70;91.10;;;;;;5053778;28;20467;-68
2022/05/26 13:39:26;;;;;;;2.00;1.80;;;19.50;92.20;;;;;;5053644;28;21008;-69
2022/05/26 13:41:55;;;;;;;2.17;2.00;;;19.50;91.90;;;;;;5053624;28;20453;-68
2022/05/26 13:44:31;;;;;;;1.90;1.80;;;19.50;92.90;;;;;;5053607;28;20457;-68
2022/05/26 13:47:02;;;;;;;3.80;2.17;;;19.40;92.40;;;;;;5053653;28;20573;-68
2022/05/26 13:49:33;;;;;;;2.50;2.30;;;19.40;92.60;;;;;;5053538;28;20520;-69
2022/05/26 13:52:09;;;;;;;2.20;2.10;;;19.40;92.60;;;;;;5053378;28;20447;-70